Briefing drone pour Saint-ferreol-d'auroure

Rechercher une autre localisation

Conditions de vol :


Nous sommes le : Dimanche 24 octobre 2021
Il est 23:32 UTC (01:32 LT)

Lever de soleil : 05:44 UTC (07:44 LT)
Coucher de soleil : 17:09 UTC (19:09 LT)

Météo

L'essentiel des conditions de vol

VIGILANCE MÉTÉO FRANCE - Haute-Loire (43)
Pas de vigilances particulieres
CARTE TEMSI
CARTES DES FRONTS
METAR de LFMH
LFMH 232300Z AUTO 18001KT 1800 R18/1100U BR NSC 00/M00 Q1025

Date d'émission: 23/10/2021
Heure d'émission: 23:00 UTC
Vent: 180° pour 1 KT (2 km/h)
Visibilité horizontale: 1800/R18/1100U m
Plafond : Pas de nuages significatifs (NSC)
Température: 0 °C
Point de rosée: 0 °C
Humidité: 100%
Pression (QNH): 1025 hPa
Conditions: Brume
TAF de LFMH
LFMH 161901Z 1619/1712 CNL

Conditions prévues :

Heure d'émission : Bulletin éffectué le 16 à 19:00 UTC
Prévision : Valide du 16 a 19:00 UTC au 17 a 12:00 UTC
Nuages : à 0ft (0 m)
WEBCAM POUR SAINT-FERREOL-D'AUROURE

Réglementation

Voler en sécurité

CARTES AERONAUTIQUE 1/500.000
CARTES VAC (LFMH)
SUP AIP




Chargement des AIP...
NOTAM (SAINT-FERREOL-D'AUROURE + Terrain à proximité / FIR )




Chargement des NOTAMS...
CONTACT PREFECTURE 43


Avertissement : Les données mises à disposition sont indicatives. Oxygène Drone ne pourra être tenu responsable de dégâts causés aux biens et aux personnes.